Time,TemperatureF,DewpointF,PressureIn,WindDirection,WindDirectionDegrees,WindSpeedMPH,WindSpeedGustMPH,Humidity,HourlyPrecipIn,Conditions,Clouds,dailyrainin,SolarRadiationWatts/m^2,SoftwareType,DateUTC
2013-10-12 00:02:00,45.0,45.0,-100.00,NE,49,0.0,5.0,100,0.00,,,0.00,0.000000,,2013-10-12 07:02:00,
2013-10-12 00:42:00,44.0,44.0,-100.00,NE,45,0.0,3.0,100,0.00,,,0.00,0.000000,,2013-10-12 07:42:00,
2013-10-12 00:52:00,44.0,44.0,-100.00,NE,45,0.0,3.0,100,0.00,,,0.00,0.000000,,2013-10-12 07:52:00,
2013-10-12 01:02:00,44.0,44.0,-100.00,NE,45,0.0,3.0,100,0.00,,,0.00,0.000000,,2013-10-12 08:02:00,
2013-10-12 01:42:00,42.0,42.0,-100.00,SSE,155,0.0,4.0,100,0.00,,,0.00,0.000000,,2013-10-12 08:42:00,
2013-10-12 01:52:00,42.0,42.0,-100.00,SSE,155,0.0,4.0,100,0.00,,,0.00,0.000000,,2013-10-12 08:52:00,
2013-10-12 02:02:00,42.0,42.0,-100.00,SSE,155,0.0,4.0,100,0.00,,,0.00,0.000000,,2013-10-12 09:02:00,
2013-10-12 02:43:00,42.0,42.0,-100.00,SSE,151,0.0,2.0,100,0.00,,,0.00,0.000000,,2013-10-12 09:43:00,
2013-10-12 02:54:00,42.0,42.0,-100.00,SSE,151,0.0,2.0,100,0.00,,,0.00,0.000000,,2013-10-12 09:54:00,
2013-10-12 03:03:00,42.0,42.0,-100.00,SSE,151,0.0,2.0,100,0.00,,,0.00,0.000000,,2013-10-12 10:03:00,
2013-10-12 03:42:00,45.0,45.0,-100.00,South,184,0.0,0.0,100,0.00,,,0.00,0.000000,,2013-10-12 10:42:00,
2013-10-12 03:52:00,45.0,45.0,-100.00,South,184,0.0,0.0,100,0.00,,,0.00,0.000000,,2013-10-12 10:52:00,
2013-10-12 04:02:00,45.0,45.0,-100.00,South,184,0.0,0.0,100,0.00,,,0.00,0.000000,,2013-10-12 11:02:00,
2013-10-12 04:42:00,44.0,44.0,-100.00,ESE,115,0.0,0.0,100,0.00,,,0.00,0.000000,,2013-10-12 11:42:00,
2013-10-12 04:52:00,44.0,44.0,-100.00,ESE,115,0.0,0.0,100,0.00,,,0.00,0.000000,,2013-10-12 11:52:00,
2013-10-12 05:01:00,44.0,44.0,-100.00,ESE,115,0.0,0.0,100,0.00,,,0.00,0.000000,,2013-10-12 12:01:00,
2013-10-12 05:42:00,46.0,46.0,-100.00,SE,142,0.0,4.0,100,0.00,,,0.00,0.000000,,2013-10-12 12:42:00,
2013-10-12 05:52:00,46.0,46.0,-100.00,SE,142,0.0,4.0,100,0.00,,,0.00,0.000000,,2013-10-12 12:52:00,
2013-10-12 06:01:00,46.0,46.0,-100.00,SE,142,0.0,4.0,100,0.00,,,0.00,0.000000,,2013-10-12 13:01:00,
2013-10-12 06:42:00,45.0,45.0,-100.00,NNW,327,0.0,4.0,100,0.00,,,0.00,0.000000,,2013-10-12 13:42:00,
2013-10-12 06:52:00,45.0,45.0,-100.00,NNW,327,0.0,4.0,100,0.00,,,0.00,0.000000,,2013-10-12 13:52:00,
2013-10-12 07:02:00,45.0,45.0,-100.00,NNW,327,0.0,4.0,100,0.00,,,0.00,0.000000,,2013-10-12 14:02:00,
2013-10-12 07:42:00,47.0,47.0,-100.00,ENE,66,0.0,5.0,100,0.00,,,0.00,0.000000,,2013-10-12 14:42:00,
2013-10-12 07:52:00,47.0,47.0,-100.00,ENE,66,0.0,5.0,100,0.00,,,0.00,0.000000,,2013-10-12 14:52:00,
2013-10-12 08:02:00,47.0,47.0,-100.00,ENE,66,0.0,5.0,100,0.00,,,0.00,0.000000,,2013-10-12 15:02:00,
2013-10-12 08:44:00,46.0,46.0,-100.00,ENE,63,0.0,7.0,100,0.00,,,0.00,4.000000,,2013-10-12 15:44:00,
2013-10-12 08:53:00,46.0,46.0,-100.00,ENE,63,0.0,7.0,100,0.00,,,0.00,4.000000,,2013-10-12 15:53:00,
2013-10-12 09:03:00,46.0,46.0,-100.00,ENE,63,0.0,7.0,100,0.00,,,0.00,4.000000,,2013-10-12 16:03:00,
2013-10-12 09:43:00,49.0,49.0,-100.00,SE,137,0.0,4.0,100,0.01,,,0.01,27.000000,,2013-10-12 16:43:00,
2013-10-12 09:53:00,49.0,49.0,-100.00,SE,137,0.0,4.0,100,0.01,,,0.01,27.000000,,2013-10-12 16:53:00,
2013-10-12 10:03:00,49.0,49.0,-100.00,SE,137,0.0,4.0,100,0.01,,,0.01,27.000000,,2013-10-12 17:03:00,
2013-10-12 10:42:00,50.0,50.0,-100.00,SE,130,0.0,4.0,100,0.01,,,0.02,97.000000,,2013-10-12 17:42:00,
2013-10-12 10:53:00,50.0,50.0,-100.00,SE,130,0.0,4.0,100,0.01,,,0.02,97.000000,,2013-10-12 17:53:00,
2013-10-12 11:02:00,50.0,50.0,-100.00,SE,130,0.0,4.0,100,0.01,,,0.02,97.000000,,2013-10-12 18:02:00,
2013-10-12 11:42:00,50.0,50.0,-100.00,NE,49,2.0,5.0,100,0.03,,,0.05,99.000000,,2013-10-12 18:42:00,
2013-10-12 11:52:00,50.0,50.0,-100.00,NE,49,2.0,5.0,100,0.03,,,0.05,99.000000,,2013-10-12 18:52:00,
2013-10-12 12:01:00,50.0,50.0,-100.00,NE,49,2.0,5.0,100,0.03,,,0.05,99.000000,,2013-10-12 19:01:00,
2013-10-12 12:42:00,50.0,50.0,-100.00,NE,40,0.0,5.0,100,0.06,,,0.11,106.000000,,2013-10-12 19:42:00,
2013-10-12 12:52:00,50.0,50.0,-100.00,NE,40,0.0,5.0,100,0.06,,,0.11,106.000000,,2013-10-12 19:52:00,
2013-10-12 13:03:00,50.0,50.0,-100.00,NE,40,0.0,5.0,100,0.06,,,0.11,106.000000,,2013-10-12 20:03:00,
2013-10-12 13:42:00,53.0,53.0,-100.00,SSE,166,2.0,5.0,100,0.05,,,0.16,155.000000,,2013-10-12 20:42:00,
2013-10-12 13:52:00,53.0,53.0,-100.00,SSE,166,2.0,5.0,100,0.05,,,0.16,155.000000,,2013-10-12 20:52:00,
2013-10-12 14:01:00,53.0,53.0,-100.00,SSE,166,2.0,5.0,100,0.05,,,0.16,155.000000,,2013-10-12 21:01:00,
2013-10-12 14:04:00,55.0,55.0,-100.00,SSE,163,0.0,5.0,100,0.01,,,0.17,329.000000,,2013-10-12 21:04:00,
2013-10-12 14:43:00,55.0,55.0,-100.00,SSE,163,0.0,5.0,100,0.01,,,0.17,329.000000,,2013-10-12 21:43:00,
2013-10-12 14:54:00,55.0,55.0,-100.00,SSE,163,0.0,5.0,100,0.01,,,0.17,329.000000,,2013-10-12 21:54:00,
2013-10-12 15:43:00,57.0,56.0,-100.00,West,264,0.0,5.0,96,0.00,,,0.17,284.000000,,2013-10-12 22:43:00,
2013-10-12 15:54:00,57.0,56.0,-100.00,West,264,0.0,5.0,96,0.00,,,0.17,284.000000,,2013-10-12 22:54:00,
2013-10-12 16:02:00,57.0,56.0,-100.00,West,264,0.0,5.0,96,0.00,,,0.17,284.000000,,2013-10-12 23:02:00,
2013-10-12 16:42:00,59.0,55.0,-100.00,NW,314,4.0,9.0,86,0.00,,,0.17,304.000000,,2013-10-12 23:42:00,
2013-10-12 16:52:00,59.0,55.0,-100.00,NW,314,4.0,9.0,86,0.00,,,0.17,304.000000,,2013-10-12 23:52:00,
2013-10-12 17:01:00,59.0,55.0,-100.00,NW,314,4.0,9.0,86,0.00,,,0.17,304.000000,,2013-10-13 00:01:00,
2013-10-12 17:42:00,58.0,53.0,-100.00,NNW,342,4.0,9.0,83,0.00,,,0.17,360.000000,,2013-10-13 00:42:00,
2013-10-12 17:52:00,58.0,53.0,-100.00,NNW,342,4.0,9.0,83,0.00,,,0.17,360.000000,,2013-10-13 00:52:00,
2013-10-12 18:01:00,58.0,53.0,-100.00,NNW,342,4.0,9.0,83,0.00,,,0.17,360.000000,,2013-10-13 01:01:00,
2013-10-12 18:42:00,57.0,53.0,-100.00,North,357,3.0,9.0,87,0.00,,,0.17,143.000000,,2013-10-13 01:42:00,
2013-10-12 18:52:00,57.0,53.0,-100.00,North,357,3.0,9.0,87,0.00,,,0.17,143.000000,,2013-10-13 01:52:00,
2013-10-12 19:02:00,57.0,53.0,-100.00,North,357,3.0,9.0,87,0.00,,,0.17,143.000000,,2013-10-13 02:02:00,
2013-10-12 19:43:00,50.0,49.0,-100.00,ENE,57,0.0,7.0,98,0.00,,,0.17,12.000000,,2013-10-13 02:43:00,
2013-10-12 19:52:00,50.0,49.0,-100.00,ENE,57,0.0,7.0,98,0.00,,,0.17,12.000000,,2013-10-13 02:52:00,
2013-10-12 20:02:00,50.0,49.0,-100.00,ENE,57,0.0,7.0,98,0.00,,,0.17,12.000000,,2013-10-13 03:02:00,
2013-10-12 20:45:00,49.0,49.0,-100.00,ENE,70,0.0,3.0,100,0.00,,,0.17,0.000000,,2013-10-13 03:45:00,
2013-10-12 20:54:00,49.0,49.0,-100.00,ENE,70,0.0,3.0,100,0.00,,,0.17,0.000000,,2013-10-13 03:54:00,
2013-10-12 21:02:00,-999.0,-99.9,-100.00,ENE,70,0.0,3.0,-999,-99.99,,,-99.99,0.000000,,2013-10-13 04:02:00,
2013-10-12 21:43:00,50.0,50.0,-100.00,NE,55,0.0,3.0,100,0.00,,,0.17,0.000000,,2013-10-13 04:43:00,
2013-10-12 21:54:00,50.0,50.0,-100.00,NE,55,0.0,3.0,100,0.00,,,0.17,0.000000,,2013-10-13 04:54:00,
2013-10-12 22:03:00,50.0,50.0,-100.00,NE,55,0.0,3.0,100,0.00,,,0.17,0.000000,,2013-10-13 05:03:00,
2013-10-12 22:43:00,49.0,49.0,-100.00,ENE,69,0.0,5.0,100,0.00,,,0.17,0.000000,,2013-10-13 05:43:00,
2013-10-12 22:52:00,49.0,49.0,-100.00,ENE,69,0.0,5.0,100,0.00,,,0.17,0.000000,,2013-10-13 05:52:00,
2013-10-12 23:02:00,49.0,49.0,-100.00,ENE,69,0.0,5.0,100,0.00,,,0.17,0.000000,,2013-10-13 06:02:00,
2013-10-12 23:42:00,49.0,49.0,-100.00,North,356,0.0,5.0,100,0.00,,,0.17,0.000000,,2013-10-13 06:42:00,
2013-10-12 23:52:00,49.0,49.0,-100.00,North,356,0.0,5.0,100,0.00,,,0.17,0.000000,,2013-10-13 06:52:00,